createdAt,value
2017-03-09T00:00:11.661Z,926.64
2017-03-09T00:00:30.228Z,926.63
2017-03-09T00:00:49.376Z,926.64
2017-03-09T00:01:09.368Z,926.68
2017-03-09T00:01:29.125Z,926.63
2017-03-09T00:01:48.287Z,926.63
2017-03-09T00:02:08.055Z,926.66
2017-03-09T00:02:27.845Z,926.61
2017-03-09T00:02:46.433Z,926.6
2017-03-09T00:03:06.199Z,926.61
2017-03-09T00:03:25.989Z,926.68
2017-03-09T00:03:45.760Z,926.69
2017-03-09T00:04:05.516Z,926.69
2017-03-09T00:04:25.273Z,926.7
2017-03-09T00:04:44.457Z,926.69
2017-03-09T00:05:03.622Z,926.68
2017-03-09T00:05:22.804Z,926.67
2017-03-09T00:05:42.575Z,926.69
2017-03-09T00:06:02.323Z,926.69
2017-03-09T00:06:22.189Z,926.65
2017-03-09T00:06:41.348Z,926.68
2017-03-09T00:07:01.091Z,926.65
2017-03-09T00:07:20.871Z,926.67
2017-03-09T00:07:39.996Z,926.67
2017-03-09T00:07:59.762Z,926.7
2017-03-09T00:08:18.922Z,926.7
2017-03-09T00:08:38.686Z,926.7
2017-03-09T00:08:58.465Z,926.66
2017-03-09T00:09:17.033Z,926.68
2017-03-09T00:09:36.793Z,926.7
2017-03-09T00:09:56.501Z,926.71
2017-03-09T00:10:30.137Z,926.71
2017-03-09T00:10:49.880Z,926.76
2017-03-09T00:11:09.599Z,926.72
2017-03-09T00:11:28.746Z,926.71
2017-03-09T00:11:47.878Z,926.68
2017-03-09T00:12:07.652Z,926.71
2017-03-09T00:12:27.454Z,926.72
2017-03-09T00:12:47.249Z,926.72
2017-03-09T00:13:06.973Z,926.71
2017-03-09T00:13:26.729Z,926.74
2017-03-09T00:13:45.903Z,926.71
2017-03-09T00:14:05.692Z,926.71
2017-03-09T00:14:25.519Z,926.75
2017-03-09T00:14:45.274Z,926.74
2017-03-09T00:15:05.031Z,926.79
2017-03-09T00:15:24.223Z,926.76
2017-03-09T00:15:43.997Z,926.73
2017-03-09T00:16:03.813Z,926.71
2017-03-09T00:16:23.709Z,926.75
2017-03-09T00:16:42.866Z,926.77
2017-03-09T00:17:02.650Z,926.75
2017-03-09T00:17:22.446Z,926.8
2017-03-09T00:17:42.205Z,926.78
2017-03-09T00:18:01.985Z,926.79
2017-03-09T00:18:21.149Z,926.79
2017-03-09T00:18:40.313Z,926.77
2017-03-09T00:19:00.055Z,926.78
2017-03-09T00:19:19.788Z,926.79
2017-03-09T00:19:39.595Z,926.75
2017-03-09T00:19:58.192Z,926.76
2017-03-09T00:20:17.949Z,926.78
2017-03-09T00:20:37.689Z,926.77
2017-03-09T00:20:57.447Z,926.81
2017-03-09T00:21:16.659Z,926.83
2017-03-09T00:21:36.422Z,926.79
2017-03-09T00:21:56.179Z,926.81
2017-03-09T00:22:15.921Z,926.8
2017-03-09T00:22:35.674Z,926.83
2017-03-09T00:22:55.463Z,926.82
2017-03-09T00:23:15.213Z,926.8
2017-03-09T00:23:35.001Z,926.83
2017-03-09T00:23:54.777Z,926.88
2017-03-09T00:24:14.520Z,926.89
2017-03-09T00:24:34.278Z,926.87
2017-03-09T00:24:54.098Z,926.88
2017-03-09T00:25:27.742Z,926.88
2017-03-09T00:25:47.529Z,926.89
2017-03-09T00:26:07.311Z,926.93
2017-03-09T00:26:26.492Z,926.94
2017-03-09T00:26:45.694Z,926.94
2017-03-09T00:27:05.451Z,926.93
2017-03-09T00:27:25.225Z,926.93
2017-03-09T00:27:44.998Z,926.94
2017-03-09T00:28:04.738Z,926.95
2017-03-09T00:28:24.521Z,926.94
2017-03-09T00:28:44.269Z,926.97
2017-03-09T00:29:04.057Z,926.98
2017-03-09T00:29:23.189Z,926.99
2017-03-09T00:29:42.926Z,927.03
2017-03-09T00:30:02.870Z,926.99
2017-03-09T00:30:22.620Z,926.98
2017-03-09T00:30:42.371Z,926.97
2017-03-09T00:31:02.147Z,926.95
2017-03-09T00:31:21.911Z,926.93
2017-03-09T00:31:41.083Z,926.97
2017-03-09T00:32:00.219Z,926.95
2017-03-09T00:32:20.008Z,926.93
2017-03-09T00:32:39.819Z,926.93
2017-03-09T00:32:59.625Z,926.89
2017-03-09T00:33:19.380Z,926.89
2017-03-09T00:33:39.296Z,926.88
2017-03-09T00:33:59.047Z,926.87
2017-03-09T00:34:18.779Z,926.88
2017-03-09T00:34:38.565Z,926.86
2017-03-09T00:34:58.322Z,926.82
2017-03-09T00:35:18.058Z,926.85
2017-03-09T00:35:37.823Z,926.84
2017-03-09T00:35:56.991Z,926.8
2017-03-09T00:36:16.765Z,926.85
2017-03-09T00:36:35.971Z,926.82
2017-03-09T00:36:55.754Z,926.81
2017-03-09T00:37:15.544Z,926.83
2017-03-09T00:37:34.105Z,926.76
2017-03-09T00:37:53.830Z,926.72
2017-03-09T00:38:13.597Z,926.74
2017-03-09T00:38:33.391Z,926.78
2017-03-09T00:38:53.163Z,926.78
2017-03-09T00:39:12.964Z,926.78
2017-03-09T00:39:32.144Z,926.79
2017-03-09T00:39:51.899Z,926.78
2017-03-09T00:40:11.846Z,926.76
2017-03-09T00:40:31.003Z,926.76
2017-03-09T00:40:50.740Z,926.76
2017-03-09T00:41:10.618Z,926.78
2017-03-09T00:41:30.790Z,926.73
2017-03-09T00:41:49.989Z,926.75
2017-03-09T00:42:09.744Z,926.73
2017-03-09T00:42:28.906Z,926.73
2017-03-09T00:42:48.667Z,926.7
2017-03-09T00:43:08.418Z,926.67
2017-03-09T00:43:28.181Z,926.69
2017-03-09T00:43:47.997Z,926.7
2017-03-09T00:44:07.741Z,926.68
2017-03-09T00:44:26.959Z,926.66
2017-03-09T00:44:46.733Z,926.69
2017-03-09T00:45:06.493Z,926.66
2017-03-09T00:45:25.666Z,926.64
2017-03-09T00:45:45.423Z,926.68
2017-03-09T00:46:05.198Z,926.67
2017-03-09T00:46:25.170Z,926.63
2017-03-09T00:46:43.756Z,926.65
2017-03-09T00:47:03.566Z,926.65
2017-03-09T00:47:23.373Z,926.67
2017-03-09T00:47:43.085Z,926.65
2017-03-09T00:48:02.860Z,926.64
2017-03-09T00:48:22.667Z,926.67
2017-03-09T00:48:42.435Z,926.71
2017-03-09T00:49:02.470Z,926.65
2017-03-09T00:49:22.236Z,926.67
2017-03-09T00:49:41.414Z,926.69
2017-03-09T00:50:00.545Z,926.7
2017-03-09T00:50:19.741Z,926.73
2017-03-09T00:50:39.495Z,926.75
2017-03-09T00:50:59.666Z,926.69
2017-03-09T00:51:19.730Z,926.69
2017-03-09T00:51:39.515Z,926.66
2017-03-09T00:51:58.706Z,926.65
2017-03-09T00:52:18.035Z,926.66
2017-03-09T00:52:37.803Z,926.69
2017-03-09T00:52:57.187Z,926.67
2017-03-09T00:53:16.937Z,926.68
2017-03-09T00:53:36.676Z,926.66
2017-03-09T00:53:56.525Z,926.65
2017-03-09T00:54:15.731Z,926.63
2017-03-09T00:54:35.558Z,926.63
2017-03-09T00:54:55.348Z,926.61
2017-03-09T00:55:15.367Z,926.56
2017-03-09T00:55:34.526Z,926.58
2017-03-09T00:55:54.301Z,926.53
2017-03-09T00:56:13.626Z,926.58
2017-03-09T00:56:32.819Z,926.55
2017-03-09T00:56:52.553Z,926.54
2017-03-09T00:57:12.294Z,926.53
2017-03-09T00:57:31.469Z,926.53
2017-03-09T00:57:51.386Z,926.52
2017-03-09T00:58:10.524Z,926.52
2017-03-09T00:58:29.099Z,926.52
2017-03-09T00:58:48.845Z,926.51
2017-03-09T00:59:08.624Z,926.48
2017-03-09T00:59:28.424Z,926.51
2017-03-09T00:59:48.147Z,926.49
2017-03-09T01:00:07.354Z,926.52
2017-03-09T01:00:26.597Z,926.48
2017-03-09T01:00:46.364Z,926.48
2017-03-09T01:01:06.165Z,926.46
2017-03-09T01:01:25.327Z,926.47
2017-03-09T01:01:58.982Z,926.44
2017-03-09T01:02:18.266Z,926.44
2017-03-09T01:02:38.103Z,926.43
2017-03-09T01:02:57.874Z,926.41
2017-03-09T01:03:17.632Z,926.43
2017-03-09T01:03:36.789Z,926.44
2017-03-09T01:03:56.552Z,926.42
2017-03-09T01:04:16.374Z,926.38
2017-03-09T01:04:35.669Z,926.38
2017-03-09T01:04:55.418Z,926.45
2017-03-09T01:05:15.175Z,926.39
2017-03-09T01:05:34.318Z,926.41
2017-03-09T01:05:54.069Z,926.41
2017-03-09T01:06:14.055Z,926.42
2017-03-09T01:06:33.325Z,926.4
2017-03-09T01:06:53.088Z,926.45
2017-03-09T01:07:12.858Z,926.46
2017-03-09T01:07:32.640Z,926.46
2017-03-09T01:07:52.391Z,926.48
2017-03-09T01:08:12.224Z,926.46
2017-03-09T01:08:32.257Z,926.45
2017-03-09T01:08:52.006Z,926.47
2017-03-09T01:09:11.784Z,926.47
2017-03-09T01:09:31.579Z,926.5
2017-03-09T01:09:51.310Z,926.51
2017-03-09T01:10:11.110Z,926.5
2017-03-09T01:10:30.422Z,926.47
2017-03-09T01:10:50.236Z,926.46
2017-03-09T01:11:10.001Z,926.45
2017-03-09T01:11:29.796Z,926.47
2017-03-09T01:11:49.551Z,926.45
2017-03-09T01:12:09.336Z,926.48
2017-03-09T01:12:29.125Z,926.46
2017-03-09T01:12:48.258Z,926.43
2017-03-09T01:13:08.023Z,926.43
2017-03-09T01:13:27.179Z,926.48
2017-03-09T01:13:46.961Z,926.45
2017-03-09T01:14:06.742Z,926.4
2017-03-09T01:14:26.529Z,926.4
2017-03-09T01:14:46.307Z,926.41
2017-03-09T01:15:06.078Z,926.43
2017-03-09T01:15:25.257Z,926.39
2017-03-09T01:15:45.032Z,926.42
2017-03-09T01:16:04.815Z,926.37
2017-03-09T01:16:24.585Z,926.44
2017-03-09T01:16:43.744Z,926.44
2017-03-09T01:17:03.548Z,926.48
2017-03-09T01:17:22.725Z,926.43
2017-03-09T01:17:42.489Z,926.45
2017-03-09T01:18:02.242Z,926.47
2017-03-09T01:18:21.401Z,926.45
2017-03-09T01:18:41.232Z,926.49
2017-03-09T01:19:00.395Z,926.43
2017-03-09T01:19:20.173Z,926.46
2017-03-09T01:19:39.921Z,926.41
2017-03-09T01:19:59.132Z,926.44
2017-03-09T01:20:18.406Z,926.5
2017-03-09T01:20:38.166Z,926.51
2017-03-09T01:20:57.907Z,926.47
2017-03-09T01:21:17.727Z,926.55
2017-03-09T01:21:37.493Z,926.52
2017-03-09T01:21:57.244Z,926.54
2017-03-09T01:22:16.996Z,926.53
2017-03-09T01:22:36.793Z,926.51
2017-03-09T01:22:56.572Z,926.52
2017-03-09T01:23:16.301Z,926.53
2017-03-09T01:23:34.292Z,926.53
2017-03-09T01:23:54.078Z,926.54
2017-03-09T01:24:13.260Z,926.52
2017-03-09T01:24:32.452Z,926.53
2017-03-09T01:24:52.208Z,926.5
2017-03-09T01:25:11.959Z,926.47
2017-03-09T01:25:31.103Z,926.51
2017-03-09T01:25:49.662Z,926.46
2017-03-09T01:26:09.445Z,926.48
2017-03-09T01:26:28.703Z,926.5
2017-03-09T01:26:48.477Z,926.46
2017-03-09T01:27:08.255Z,926.52
2017-03-09T01:27:28.035Z,926.47
2017-03-09T01:27:47.788Z,926.47
2017-03-09T01:28:07.549Z,926.49
2017-03-09T01:28:27.528Z,926.47
2017-03-09T01:28:46.807Z,926.48
2017-03-09T01:29:06.597Z,926.5
2017-03-09T01:29:26.364Z,926.52
2017-03-09T01:29:46.140Z,926.53
2017-03-09T01:30:05.957Z,926.54
2017-03-09T01:30:25.948Z,926.52
2017-03-09T01:30:45.851Z,926.48
2017-03-09T01:31:05.618Z,926.51
2017-03-09T01:31:25.395Z,926.52
2017-03-09T01:31:45.157Z,926.52
2017-03-09T01:32:04.947Z,926.48
2017-03-09T01:32:25.201Z,926.47
2017-03-09T01:32:45.298Z,926.44
2017-03-09T01:33:05.083Z,926.48
2017-03-09T01:33:26.090Z,926.44
2017-03-09T01:33:45.879Z,926.45
2017-03-09T01:34:05.699Z,926.43
2017-03-09T01:34:25.501Z,926.43
2017-03-09T01:34:45.541Z,926.39
2017-03-09T01:35:05.623Z,926.42
2017-03-09T01:35:25.408Z,926.41
2017-03-09T01:35:45.224Z,926.39
2017-03-09T01:36:05.033Z,926.39
2017-03-09T01:36:24.777Z,926.37
2017-03-09T01:36:44.268Z,926.37
2017-03-09T01:37:04.067Z,926.39
2017-03-09T01:37:23.327Z,926.3
2017-03-09T01:37:43.102Z,926.32
2017-03-09T01:38:02.874Z,926.32
2017-03-09T01:38:22.389Z,926.34
2017-03-09T01:38:41.772Z,926.32
2017-03-09T01:39:00.935Z,926.34
2017-03-09T01:39:20.660Z,926.29
2017-03-09T01:39:39.806Z,926.33
2017-03-09T01:39:59.565Z,926.32
2017-03-09T01:40:33.447Z,926.34
2017-03-09T01:40:53.233Z,926.34
2017-03-09T01:41:13.202Z,926.35
2017-03-09T01:41:32.329Z,926.37
2017-03-09T01:41:51.486Z,926.33
2017-03-09T01:42:11.376Z,926.37
2017-03-09T01:42:31.553Z,926.35
2017-03-09T01:42:51.324Z,926.34
2017-03-09T01:43:11.055Z,926.37
2017-03-09T01:43:30.294Z,926.37
2017-03-09T01:43:50.088Z,926.35
2017-03-09T01:44:10.072Z,926.34
2017-03-09T01:44:30.509Z,926.39
2017-03-09T01:44:50.457Z,926.36
2017-03-09T01:45:10.399Z,926.39
2017-03-09T01:45:30.666Z,926.39
2017-03-09T01:45:50.604Z,926.4
2017-03-09T01:46:09.919Z,926.42
2017-03-09T01:46:30.494Z,926.41
2017-03-09T01:46:50.375Z,926.38
2017-03-09T01:47:10.183Z,926.4
2017-03-09T01:47:30.087Z,926.33
2017-03-09T01:47:49.878Z,926.37
2017-03-09T01:48:09.789Z,926.38
2017-03-09T01:48:30.167Z,926.35
2017-03-09T01:48:48.752Z,926.34
2017-03-09T01:49:08.509Z,926.33
2017-03-09T01:49:28.283Z,926.34
2017-03-09T01:49:48.048Z,926.34
2017-03-09T01:50:07.848Z,926.36
2017-03-09T01:50:28.112Z,926.32
2017-03-09T01:50:48.198Z,926.37
2017-03-09T01:51:07.509Z,926.31
2017-03-09T01:51:27.402Z,926.35
2017-03-09T01:51:47.180Z,926.36
2017-03-09T01:52:07.001Z,926.36
2017-03-09T01:52:27.473Z,926.33
2017-03-09T01:52:47.493Z,926.35
2017-03-09T01:53:06.711Z,926.38
2017-03-09T01:53:26.177Z,926.34
2017-03-09T01:53:46.272Z,926.34
2017-03-09T01:54:06.236Z,926.37
2017-03-09T01:54:26.655Z,926.35
2017-03-09T01:54:45.518Z,926.35
2017-03-09T01:55:05.301Z,926.3
2017-03-09T01:55:25.116Z,926.33
2017-03-09T01:55:44.900Z,926.31
2017-03-09T01:56:04.704Z,926.35
2017-03-09T01:56:25.295Z,926.32
2017-03-09T01:56:44.771Z,926.36
2017-03-09T01:57:04.614Z,926.28
2017-03-09T01:57:24.460Z,926.28
2017-03-09T01:57:44.198Z,926.25
2017-03-09T01:58:04.027Z,926.29
2017-03-09T01:58:22.985Z,926.29
2017-03-09T01:58:43.160Z,926.28
2017-03-09T01:59:03.263Z,926.28
2017-03-09T01:59:22.645Z,926.29
2017-03-09T01:59:42.695Z,926.26
2017-03-09T02:00:16.819Z,926.26
2017-03-09T02:00:37.231Z,926.23
2017-03-09T02:00:57.207Z,926.27
2017-03-09T02:01:17.270Z,926.29
2017-03-09T02:01:37.320Z,926.28
2017-03-09T02:01:56.652Z,926.25
2017-03-09T02:02:16.313Z,926.27
2017-03-09T02:02:36.717Z,926.27
2017-03-09T02:02:55.988Z,926.21
2017-03-09T02:03:15.878Z,926.27
2017-03-09T02:03:35.915Z,926.2
2017-03-09T02:03:55.701Z,926.18
2017-03-09T02:04:15.863Z,926.21
2017-03-09T02:04:36.191Z,926.18
2017-03-09T02:04:55.975Z,926.19
2017-03-09T02:05:15.742Z,926.14
2017-03-09T02:05:35.509Z,926.15
2017-03-09T02:05:55.269Z,926.16
2017-03-09T02:06:15.248Z,926.12
2017-03-09T02:06:34.936Z,926.16
2017-03-09T02:06:54.700Z,926.13
2017-03-09T02:07:13.299Z,926.13
2017-03-09T02:07:33.078Z,926.14
2017-03-09T02:07:52.839Z,926.08
2017-03-09T02:08:12.800Z,926.13
2017-03-09T02:08:32.538Z,926.15
2017-03-09T02:08:52.494Z,926.15
2017-03-09T02:09:12.345Z,926.1
2017-03-09T02:09:31.640Z,926.14
2017-03-09T02:09:51.417Z,926.15
2017-03-09T02:10:11.320Z,926.13
2017-03-09T02:10:31.480Z,926.16
2017-03-09T02:10:51.247Z,926.16
2017-03-09T02:11:10.460Z,926.13
2017-03-09T02:11:29.644Z,926.16
2017-03-09T02:11:49.398Z,926.15
2017-03-09T02:12:08.613Z,926.13
2017-03-09T02:12:28.775Z,926.15
2017-03-09T02:12:48.045Z,926.13
2017-03-09T02:13:07.837Z,926.14
2017-03-09T02:13:27.625Z,926.12
2017-03-09T02:13:47.369Z,926.14
2017-03-09T02:14:06.543Z,926.16
2017-03-09T02:14:26.647Z,926.11
2017-03-09T02:14:45.912Z,926.11
2017-03-09T02:15:05.705Z,926.11
2017-03-09T02:15:24.899Z,926.04
2017-03-09T02:15:44.050Z,926.09
2017-03-09T02:16:04.088Z,926.05
2017-03-09T02:16:24.732Z,926.09
2017-03-09T02:16:44.833Z,926.1
2017-03-09T02:17:04.641Z,926.09
2017-03-09T02:17:24.619Z,926.1
2017-03-09T02:17:44.538Z,926.08
2017-03-09T02:18:04.336Z,926.12
2017-03-09T02:18:24.785Z,926.06
2017-03-09T02:18:44.974Z,926.08
2017-03-09T02:19:04.993Z,926.08
2017-03-09T02:19:25.173Z,926.09
2017-03-09T02:19:44.500Z,926.12
2017-03-09T02:20:04.296Z,926.07
2017-03-09T02:20:24.024Z,926.08
2017-03-09T02:20:44.217Z,926.07
2017-03-09T02:21:04.160Z,926.05
2017-03-09T02:21:24.581Z,926.03
2017-03-09T02:21:45.226Z,926.05
2017-03-09T02:22:05.179Z,926.04
2017-03-09T02:22:25.672Z,926.04
2017-03-09T02:22:45.682Z,926.02
2017-03-09T02:23:05.577Z,926.04
2017-03-09T02:23:25.524Z,926.03
2017-03-09T02:23:45.444Z,926.07
2017-03-09T02:24:05.236Z,926.03
2017-03-09T02:24:25.099Z,926.04
2017-03-09T02:24:45.320Z,926.04
2017-03-09T02:25:05.239Z,926.04
2017-03-09T02:25:24.631Z,926.07
2017-03-09T02:25:44.418Z,926.04
2017-03-09T02:26:03.644Z,926.1
2017-03-09T02:26:24.010Z,926.1
2017-03-09T02:26:43.554Z,926.13
2017-03-09T02:27:03.534Z,926.13
2017-03-09T02:27:23.378Z,926.17
2017-03-09T02:27:43.214Z,926.17
2017-03-09T02:28:03.054Z,926.17
2017-03-09T02:28:22.735Z,926.19
2017-03-09T02:28:42.951Z,926.18
2017-03-09T02:29:03.299Z,926.16
2017-03-09T02:29:23.320Z,926.16
2017-03-09T02:29:41.959Z,926.17
2017-03-09T02:30:02.007Z,926.17
2017-03-09T02:30:22.102Z,926.17
2017-03-09T02:30:42.474Z,926.13
2017-03-09T02:31:02.769Z,926.05
2017-03-09T02:31:23.144Z,926.09
2017-03-09T02:31:42.799Z,926.07
2017-03-09T02:32:02.973Z,926.12
2017-03-09T02:32:22.873Z,926.07
2017-03-09T02:32:42.538Z,926.11
2017-03-09T02:33:02.793Z,926.08
2017-03-09T02:33:23.241Z,926.03
2017-03-09T02:33:43.512Z,926.05
2017-03-09T02:34:03.627Z,926.01
2017-03-09T02:34:24.147Z,926.04
2017-03-09T02:34:44.393Z,926.07
2017-03-09T02:35:04.552Z,926.03
2017-03-09T02:35:24.776Z,926
2017-03-09T02:35:44.202Z,926.03
2017-03-09T02:36:04.127Z,926.04
2017-03-09T02:36:24.512Z,926.03
2017-03-09T02:36:44.764Z,926.03
2017-03-09T02:37:04.249Z,926.02
2017-03-09T02:37:24.682Z,926.04
2017-03-09T02:37:44.170Z,926.04
2017-03-09T02:38:04.238Z,925.99
2017-03-09T02:38:24.704Z,925.97
2017-03-09T02:38:44.302Z,926.04
2017-03-09T02:39:04.543Z,925.97
2017-03-09T02:39:24.862Z,925.93
2017-03-09T02:39:45.110Z,925.98
2017-03-09T02:40:05.021Z,925.98
2017-03-09T02:40:25.457Z,925.99
2017-03-09T02:40:44.363Z,925.97
2017-03-09T02:41:04.605Z,926.01
2017-03-09T02:41:25.131Z,925.96
2017-03-09T02:41:45.324Z,925.99
2017-03-09T02:42:05.434Z,926.02
2017-03-09T02:42:25.879Z,925.98
2017-03-09T02:42:46.161Z,925.99
2017-03-09T02:43:05.656Z,926.03
2017-03-09T02:43:25.844Z,926
2017-03-09T02:43:45.956Z,926
2017-03-09T02:44:06.148Z,926.04
2017-03-09T02:44:27.116Z,925.99
2017-03-09T02:44:47.245Z,926.05
2017-03-09T02:45:07.393Z,926
2017-03-09T02:45:27.706Z,925.98
2017-03-09T02:45:48.001Z,925.99
2017-03-09T02:46:08.104Z,926.03
2017-03-09T02:46:27.954Z,926.05
2017-03-09T02:46:48.190Z,926.03
2017-03-09T02:47:08.472Z,926.05
2017-03-09T02:47:28.874Z,926.01
2017-03-09T02:47:48.956Z,926.02
2017-03-09T02:48:09.058Z,926.01
2017-03-09T02:48:28.895Z,926.02
2017-03-09T02:48:48.402Z,926.01
2017-03-09T02:49:08.449Z,925.98
2017-03-09T02:49:28.501Z,926.01
2017-03-09T02:49:48.261Z,925.97
2017-03-09T02:50:08.276Z,926.01
2017-03-09T02:50:28.713Z,926.05
2017-03-09T02:50:48.801Z,926.02
2017-03-09T02:51:09.002Z,926
2017-03-09T02:51:29.063Z,926.06
2017-03-09T02:51:48.463Z,925.98
2017-03-09T02:52:08.375Z,926.04
2017-03-09T02:52:28.853Z,926.01
2017-03-09T02:52:48.885Z,926.01
2017-03-09T02:53:08.905Z,926.04
2017-03-09T02:53:28.943Z,926.03
2017-03-09T02:53:48.281Z,926.02
2017-03-09T02:54:08.372Z,925.99
2017-03-09T02:54:28.826Z,926.01
2017-03-09T02:54:48.945Z,926.02
2017-03-09T02:55:08.955Z,926.03
2017-03-09T02:55:29.021Z,926.04
2017-03-09T02:55:48.962Z,926.06
2017-03-09T02:56:08.859Z,926.04
2017-03-09T02:56:29.378Z,925.95
2017-03-09T02:56:49.290Z,926.02
2017-03-09T02:57:09.139Z,925.98
2017-03-09T02:57:28.618Z,925.99
2017-03-09T02:57:48.504Z,925.95
2017-03-09T02:58:08.626Z,925.93
2017-03-09T02:58:29.060Z,925.98
2017-03-09T02:58:48.562Z,925.99
2017-03-09T02:59:08.903Z,925.93
2017-03-09T02:59:30.082Z,925.94
2017-03-09T02:59:50.189Z,925.97
2017-03-09T03:00:12.446Z,925.96
2017-03-09T03:00:32.991Z,926.01
2017-03-09T03:00:53.215Z,925.95
2017-03-09T03:01:13.691Z,925.97
2017-03-09T03:01:34.114Z,925.95
2017-03-09T03:01:54.591Z,926
2017-03-09T03:02:15.048Z,926.02
2017-03-09T03:02:35.736Z,926.04
2017-03-09T03:02:56.218Z,926.08
2017-03-09T03:03:16.642Z,926.01
2017-03-09T03:03:36.472Z,926.02
2017-03-09T03:03:56.541Z,926.06
2017-03-09T03:04:17.003Z,926.06
2017-03-09T03:04:37.634Z,926.06
2017-03-09T03:04:58.209Z,926.04
2017-03-09T03:05:18.030Z,926.1
2017-03-09T03:05:38.550Z,926.08
2017-03-09T03:05:57.736Z,926.09
2017-03-09T03:06:18.431Z,926.06
2017-03-09T03:06:38.847Z,926.1
2017-03-09T03:06:59.281Z,926.08
2017-03-09T03:07:19.680Z,926.09
2017-03-09T03:07:40.109Z,926.11
2017-03-09T03:08:00.525Z,926.07
2017-03-09T03:08:21.064Z,926.07
2017-03-09T03:08:41.547Z,926.08
2017-03-09T03:09:02.112Z,926.09
2017-03-09T03:09:22.659Z,926.09
2017-03-09T03:09:43.204Z,926.03
2017-03-09T03:10:03.589Z,926.01
2017-03-09T03:10:23.425Z,926.06
2017-03-09T03:10:43.939Z,926.07
2017-03-09T03:11:04.473Z,926.09
2017-03-09T03:11:24.888Z,926.04
2017-03-09T03:11:43.467Z,926
2017-03-09T03:12:03.869Z,926.02
2017-03-09T03:12:23.682Z,925.99
2017-03-09T03:12:44.036Z,926.02
2017-03-09T03:13:04.380Z,925.97
2017-03-09T03:13:24.609Z,925.97
2017-03-09T03:13:42.791Z,926
2017-03-09T03:14:02.586Z,925.99
2017-03-09T03:14:22.315Z,925.99
2017-03-09T03:14:42.553Z,925.97
2017-03-09T03:15:02.478Z,925.96
2017-03-09T03:15:24.321Z,925.95
2017-03-09T03:15:43.524Z,925.97
2017-03-09T03:16:03.984Z,925.97
2017-03-09T03:16:24.563Z,925.95
2017-03-09T03:16:44.904Z,925.9
2017-03-09T03:17:05.452Z,925.95
2017-03-09T03:17:25.930Z,925.96
2017-03-09T03:17:46.220Z,925.99
2017-03-09T03:18:06.677Z,925.96
2017-03-09T03:18:27.194Z,926
2017-03-09T03:18:46.850Z,926
2017-03-09T03:19:07.185Z,926.02
2017-03-09T03:19:27.556Z,926.01
2017-03-09T03:19:47.997Z,926.01
2017-03-09T03:20:08.392Z,926
2017-03-09T03:20:28.218Z,926.01
2017-03-09T03:20:48.460Z,925.96
2017-03-09T03:21:08.671Z,925.98
2017-03-09T03:21:28.228Z,926.02
2017-03-09T03:21:48.283Z,926.01
2017-03-09T03:22:07.859Z,925.96
2017-03-09T03:22:27.659Z,925.98
2017-03-09T03:22:47.642Z,925.98
2017-03-09T03:23:07.396Z,925.98
2017-03-09T03:23:27.140Z,926
2017-03-09T03:23:46.865Z,925.96
2017-03-09T03:24:06.640Z,925.93
2017-03-09T03:24:27.011Z,925.95
2017-03-09T03:24:46.441Z,925.91
2017-03-09T03:25:06.213Z,925.9
2017-03-09T03:25:25.382Z,925.9
2017-03-09T03:25:45.129Z,925.88
2017-03-09T03:26:04.915Z,925.88
2017-03-09T03:26:24.684Z,925.86
2017-03-09T03:26:44.818Z,925.86
2017-03-09T03:27:04.604Z,925.88
2017-03-09T03:27:23.928Z,925.88
2017-03-09T03:27:43.731Z,925.85
2017-03-09T03:28:03.516Z,925.84
2017-03-09T03:28:22.629Z,925.82
2017-03-09T03:28:42.779Z,925.85
2017-03-09T03:29:02.541Z,925.86
2017-03-09T03:29:22.391Z,925.81
2017-03-09T03:29:42.415Z,925.83
2017-03-09T03:30:02.275Z,925.83
2017-03-09T03:30:21.988Z,925.81
2017-03-09T03:30:42.337Z,925.82
2017-03-09T03:31:02.450Z,925.8
2017-03-09T03:31:22.533Z,925.8
2017-03-09T03:31:42.337Z,925.8
2017-03-09T03:32:02.098Z,925.79
2017-03-09T03:32:22.403Z,925.81
2017-03-09T03:32:42.628Z,925.83
2017-03-09T03:33:02.425Z,925.82
2017-03-09T03:33:21.672Z,925.81
2017-03-09T03:33:41.526Z,925.83
2017-03-09T03:34:00.717Z,925.84
2017-03-09T03:34:20.516Z,925.88
2017-03-09T03:34:40.760Z,925.86
2017-03-09T03:35:00.857Z,925.86
2017-03-09T03:35:20.381Z,925.88
2017-03-09T03:35:40.461Z,925.83
2017-03-09T03:36:00.228Z,925.88
2017-03-09T03:36:19.950Z,925.84
2017-03-09T03:36:39.715Z,925.82
2017-03-09T03:36:59.650Z,925.86
2017-03-09T03:37:19.488Z,925.85
2017-03-09T03:37:39.339Z,925.86
2017-03-09T03:37:59.167Z,925.8
2017-03-09T03:38:19.451Z,925.79
2017-03-09T03:38:39.777Z,925.8
2017-03-09T03:38:59.554Z,925.81
2017-03-09T03:39:19.428Z,925.79
2017-03-09T03:39:38.595Z,925.75
2017-03-09T03:39:58.353Z,925.77
2017-03-09T03:40:18.586Z,925.77
2017-03-09T03:40:38.251Z,925.78
2017-03-09T03:40:57.995Z,925.76
2017-03-09T03:41:17.851Z,925.78
2017-03-09T03:41:37.699Z,925.74
2017-03-09T03:41:57.466Z,925.74
2017-03-09T03:42:17.656Z,925.73
2017-03-09T03:42:37.361Z,925.76
2017-03-09T03:42:57.095Z,925.74
2017-03-09T03:43:16.936Z,925.74
2017-03-09T03:43:36.738Z,925.75
2017-03-09T03:43:56.495Z,925.74
2017-03-09T03:44:16.707Z,925.77
2017-03-09T03:44:36.508Z,925.76
2017-03-09T03:44:56.424Z,925.73
2017-03-09T03:45:16.216Z,925.78
2017-03-09T03:45:34.795Z,925.73
2017-03-09T03:45:54.554Z,925.76
2017-03-09T03:46:14.831Z,925.76
2017-03-09T03:46:35.276Z,925.75
2017-03-09T03:46:54.476Z,925.73
2017-03-09T03:47:14.262Z,925.76
2017-03-09T03:47:33.537Z,925.73
2017-03-09T03:47:53.339Z,925.76
2017-03-09T03:48:13.397Z,925.76
2017-03-09T03:48:33.847Z,925.72
2017-03-09T03:48:53.274Z,925.73
2017-03-09T03:49:13.125Z,925.76
2017-03-09T03:49:31.831Z,925.73
2017-03-09T03:49:50.997Z,925.71
2017-03-09T03:50:10.904Z,925.74
2017-03-09T03:50:31.363Z,925.72
2017-03-09T03:50:51.371Z,925.71
2017-03-09T03:51:11.340Z,925.69
2017-03-09T03:51:31.386Z,925.67
2017-03-09T03:51:51.418Z,925.66
2017-03-09T03:52:11.385Z,925.7
2017-03-09T03:52:31.239Z,925.72
2017-03-09T03:52:50.629Z,925.73
2017-03-09T03:53:10.577Z,925.74
2017-03-09T03:53:30.592Z,925.79
2017-03-09T03:53:50.521Z,925.82
2017-03-09T03:54:10.492Z,925.78
2017-03-09T03:54:30.870Z,925.82
2017-03-09T03:54:50.816Z,925.84
2017-03-09T03:55:10.626Z,925.85
2017-03-09T03:55:29.970Z,925.88
2017-03-09T03:55:49.887Z,925.89
2017-03-09T03:56:09.158Z,925.92
2017-03-09T03:56:28.925Z,925.94
2017-03-09T03:56:48.930Z,925.96
2017-03-09T03:57:08.763Z,925.95
2017-03-09T03:57:28.721Z,925.98
2017-03-09T03:57:48.052Z,925.94
2017-03-09T03:58:07.979Z,925.98
2017-03-09T03:58:28.371Z,925.96
2017-03-09T03:58:48.483Z,925.97
2017-03-09T03:59:08.354Z,925.96
2017-03-09T03:59:28.273Z,925.96
2017-03-09T03:59:48.142Z,925.96
2017-03-09T04:00:07.350Z,925.94
2017-03-09T04:00:26.465Z,925.97
2017-03-09T04:00:46.510Z,925.94
2017-03-09T04:01:06.304Z,925.95
2017-03-09T04:01:26.274Z,925.97
2017-03-09T04:01:46.115Z,925.95
2017-03-09T04:02:05.919Z,925.99
2017-03-09T04:02:26.411Z,925.98
2017-03-09T04:02:46.457Z,925.97
2017-03-09T04:03:06.254Z,925.97
2017-03-09T04:03:25.808Z,925.97
2017-03-09T04:03:45.702Z,925.95
2017-03-09T04:04:04.978Z,925.96
2017-03-09T04:04:25.453Z,925.97
2017-03-09T04:04:44.373Z,925.93
2017-03-09T04:05:03.665Z,925.96
2017-03-09T04:05:23.593Z,925.95
2017-03-09T04:05:42.903Z,925.98
2017-03-09T04:06:02.726Z,925.94
2017-03-09T04:06:22.449Z,925.98
2017-03-09T04:06:42.602Z,926.01
2017-03-09T04:07:02.391Z,925.96
2017-03-09T04:07:22.188Z,925.98
2017-03-09T04:07:41.366Z,926.01
2017-03-09T04:08:01.129Z,925.99
2017-03-09T04:08:21.487Z,925.99
2017-03-09T04:08:41.811Z,925.99
2017-03-09T04:09:01.668Z,926
2017-03-09T04:09:21.587Z,925.99